createdAt,value
2023-04-16T00:01:36.258Z,2.72
2023-04-16T00:04:03.515Z,2.53
2023-04-16T00:06:30.605Z,2.58
2023-04-16T00:08:58.537Z,2.88
2023-04-16T00:11:25.150Z,3.67
2023-04-16T00:13:51.735Z,3.35
2023-04-16T00:16:18.410Z,3.20
2023-04-16T00:18:44.976Z,3.17
2023-04-16T00:21:11.700Z,3.45
2023-04-16T00:23:38.280Z,4.00
2023-04-16T00:26:06.273Z,3.55
2023-04-16T00:28:33.151Z,3.22
2023-04-16T00:31:01.090Z,3.88
2023-04-16T00:33:27.718Z,4.28
2023-04-16T00:35:54.289Z,3.33
2023-04-16T00:38:20.965Z,3.53
2023-04-16T00:40:47.560Z,3.47
2023-04-16T00:43:22.290Z,3.45
2023-04-16T00:45:49.133Z,3.75
2023-04-16T00:48:16.255Z,4.20
2023-04-16T00:50:42.856Z,4.40
2023-04-16T00:53:09.741Z,4.63
2023-04-16T00:55:38.132Z,3.97
2023-04-16T00:58:04.851Z,4.05
2023-04-16T01:00:32.961Z,4.35
2023-04-16T01:02:59.856Z,4.03
2023-04-16T01:05:26.836Z,4.43
2023-04-16T01:07:53.430Z,4.03
2023-04-16T01:10:20.246Z,4.47
2023-04-16T01:12:46.818Z,3.90
2023-04-16T01:15:13.447Z,5.00
2023-04-16T01:17:45.532Z,4.22
2023-04-16T01:20:12.359Z,4.22
2023-04-16T01:22:40.636Z,3.60
2023-04-16T01:25:07.497Z,4.00
2023-04-16T01:27:34.373Z,4.30
2023-04-16T01:30:01.006Z,4.30
2023-04-16T01:32:38.930Z,4.10
2023-04-16T01:35:06.110Z,4.07
2023-04-16T01:37:33.915Z,4.28
2023-04-16T01:40:02.009Z,4.82
2023-04-16T01:42:29.113Z,3.90
2023-04-16T01:44:55.757Z,4.65
2023-04-16T01:47:22.483Z,4.88
2023-04-16T01:49:49.085Z,4.60
2023-04-16T01:52:16.178Z,4.90
2023-04-16T01:54:42.776Z,4.30
2023-04-16T01:57:10.758Z,4.97
2023-04-16T01:59:37.348Z,4.88
2023-04-16T02:02:09.168Z,5.05
2023-04-16T02:04:35.851Z,5.15
2023-04-16T02:07:02.524Z,5.47
2023-04-16T02:09:29.971Z,5.57
2023-04-16T02:11:56.916Z,5.20
2023-04-16T02:14:24.881Z,5.30
2023-04-16T02:16:51.610Z,5.03
2023-04-16T02:19:35.064Z,4.55
2023-04-16T02:22:01.772Z,4.65
2023-04-16T02:24:28.553Z,5.40
2023-04-16T02:26:56.052Z,6.00
2023-04-16T02:29:23.053Z,4.90
2023-04-16T02:31:57.683Z,5.45
2023-04-16T02:34:24.413Z,5.45
2023-04-16T02:36:51.134Z,5.47
2023-04-16T02:39:18.008Z,6.25
2023-04-16T02:41:44.646Z,6.15
2023-04-16T02:44:11.269Z,6.57
2023-04-16T02:46:37.838Z,7.40
2023-04-16T02:49:05.808Z,6.60
2023-04-16T02:51:32.528Z,8.35
2023-04-16T02:53:59.241Z,8.77
2023-04-16T02:56:26.097Z,8.02
2023-04-16T02:58:52.722Z,7.07
2023-04-16T03:01:19.384Z,8.73
2023-04-16T03:03:46.075Z,9.82
2023-04-16T03:06:14.007Z,7.28
2023-04-16T03:08:40.671Z,7.15
2023-04-16T03:11:07.289Z,7.18
2023-04-16T03:13:33.853Z,7.03
2023-04-16T03:16:00.480Z,6.32
2023-04-16T03:18:27.102Z,6.68
2023-04-16T03:20:54.171Z,6.78
2023-04-16T03:23:22.051Z,7.72
2023-04-16T03:25:48.725Z,7.32
2023-04-16T03:28:18.040Z,7.90
2023-04-16T03:30:50.430Z,7.85
2023-04-16T03:35:43.712Z,6.85
2023-04-16T03:38:10.351Z,7.25
2023-04-16T03:40:38.913Z,7.63
2023-04-16T03:43:05.594Z,7.28
2023-04-16T03:45:32.797Z,8.05
2023-04-16T03:47:59.458Z,7.07
2023-04-16T03:50:26.323Z,8.27
2023-04-16T03:52:52.911Z,8.82
2023-04-16T03:55:19.533Z,7.05
2023-04-16T03:57:47.485Z,7.85
2023-04-16T04:00:15.961Z,7.60
2023-04-16T04:02:55.901Z,7.40
2023-04-16T04:05:23.567Z,10.07
2023-04-16T04:07:51.379Z,9.48
2023-04-16T04:10:18.055Z,10.70
2023-04-16T04:12:45.186Z,10.98
2023-04-16T04:15:13.922Z,12.10
2023-04-16T04:17:42.264Z,11.32
2023-04-16T04:20:09.914Z,11.82
2023-04-16T04:22:36.897Z,11.43
2023-04-16T04:25:03.709Z,11.45
2023-04-16T04:27:32.453Z,10.70
2023-04-16T04:29:59.065Z,9.15
2023-04-16T04:32:26.988Z,10.90
2023-04-16T04:34:53.559Z,10.32
2023-04-16T04:37:20.096Z,12.73
2023-04-16T04:39:46.734Z,10.98
2023-04-16T04:42:13.353Z,10.65
2023-04-16T04:44:40.246Z,10.75
2023-04-16T04:47:08.171Z,11.07
2023-04-16T04:49:36.709Z,11.93
2023-04-16T04:52:03.342Z,11.95
2023-04-16T04:54:32.100Z,13.82
2023-04-16T04:56:59.082Z,12.48
2023-04-16T04:59:25.738Z,11.10
2023-04-16T05:01:52.685Z,12.48
2023-04-16T05:04:19.602Z,13.30
2023-04-16T05:06:47.612Z,12.35
2023-04-16T05:09:14.159Z,12.05
2023-04-16T05:11:42.141Z,13.32
2023-04-16T05:14:08.849Z,11.50
2023-04-16T05:16:36.888Z,12.93
2023-04-16T05:19:03.952Z,12.70
2023-04-16T05:21:30.593Z,11.25
2023-04-16T05:23:58.737Z,11.70
2023-04-16T05:26:25.319Z,11.55
2023-04-16T05:28:51.904Z,13.85
2023-04-16T05:31:18.708Z,12.75
2023-04-16T05:33:45.347Z,11.88
2023-04-16T05:36:12.001Z,12.23
2023-04-16T05:38:38.558Z,10.10
2023-04-16T05:41:07.778Z,11.07
2023-04-16T05:43:34.307Z,13.25
2023-04-16T05:46:00.881Z,13.73
2023-04-16T05:48:27.496Z,11.93
2023-04-16T05:50:54.154Z,12.48
2023-04-16T05:53:20.705Z,11.88
2023-04-16T05:55:47.288Z,12.15
2023-04-16T05:58:15.201Z,11.38
2023-04-16T06:00:41.852Z,11.48
2023-04-16T06:03:08.591Z,11.73
2023-04-16T06:05:35.532Z,11.27
2023-04-16T06:08:02.172Z,11.85
2023-04-16T06:10:28.770Z,11.73
2023-04-16T06:12:55.351Z,13.90
2023-04-16T06:15:23.367Z,12.68
2023-04-16T06:17:50.221Z,12.90
2023-04-16T06:20:16.957Z,13.48
2023-04-16T06:22:43.681Z,13.65
2023-04-16T06:25:10.312Z,14.25
2023-04-16T06:27:36.861Z,14.27
2023-04-16T06:30:03.781Z,14.88
2023-04-16T06:32:31.823Z,14.48
2023-04-16T06:34:58.484Z,14.40
2023-04-16T06:37:25.289Z,15.98
2023-04-16T06:39:51.856Z,15.52
2023-04-16T06:42:18.519Z,16.65
2023-04-16T06:44:45.132Z,16.88
2023-04-16T06:47:11.868Z,17.13
2023-04-16T06:49:39.806Z,16.77
2023-04-16T06:52:06.668Z,15.80
2023-04-16T06:54:33.357Z,18.20
2023-04-16T06:56:59.974Z,17.85
2023-04-16T06:59:26.547Z,18.83
2023-04-16T07:01:53.264Z,19.13
2023-04-16T07:04:20.045Z,18.38
2023-04-16T07:06:47.980Z,17.63
2023-04-16T07:09:14.575Z,20.00
2023-04-16T07:11:41.878Z,20.15
2023-04-16T07:14:08.538Z,21.02
2023-04-16T07:16:35.216Z,21.40
2023-04-16T07:19:01.897Z,20.23
2023-04-16T07:21:28.531Z,21.05
2023-04-16T07:23:56.476Z,20.33
2023-04-16T07:26:23.184Z,19.92
2023-04-16T07:28:49.822Z,22.40
2023-04-16T07:31:16.552Z,20.05
2023-04-16T07:33:43.220Z,19.90
2023-04-16T07:36:09.890Z,20.42
2023-04-16T07:38:36.508Z,21.85
2023-04-16T07:41:04.491Z,21.83
2023-04-16T07:43:31.003Z,21.70
2023-04-16T07:45:57.626Z,20.25
2023-04-16T07:48:24.364Z,22.23
2023-04-16T07:50:51.117Z,22.08
2023-04-16T07:53:18.100Z,21.17
2023-04-16T07:55:44.740Z,21.73
2023-04-16T07:58:12.686Z,22.25
2023-04-16T08:00:39.331Z,22.70
2023-04-16T08:03:06.169Z,22.15
2023-04-16T08:05:32.918Z,22.15
2023-04-16T08:07:59.439Z,22.13
2023-04-16T08:10:26.055Z,22.83
2023-04-16T08:12:52.748Z,23.35
2023-04-16T08:15:20.706Z,22.15
2023-04-16T08:17:47.301Z,21.90
2023-04-16T08:20:16.910Z,20.98
2023-04-16T08:22:45.406Z,20.25
2023-04-16T08:25:12.110Z,20.92
2023-04-16T08:27:38.748Z,22.75
2023-04-16T08:30:06.559Z,21.05
2023-04-16T08:32:34.567Z,21.08
2023-04-16T08:35:01.211Z,22.23
2023-04-16T08:37:27.860Z,21.58
2023-04-16T08:39:54.507Z,21.67
2023-04-16T08:42:29.015Z,20.90
2023-04-16T08:45:06.204Z,19.50
2023-04-16T08:47:35.859Z,19.60
2023-04-16T08:50:04.014Z,20.35
2023-04-16T08:52:31.528Z,19.33
2023-04-16T08:55:04.298Z,19.30
2023-04-16T08:57:38.777Z,19.67
2023-04-16T09:00:07.903Z,19.50
2023-04-16T09:02:36.177Z,18.63
2023-04-16T09:05:05.122Z,19.33
2023-04-16T09:07:33.355Z,19.90
2023-04-16T09:10:00.641Z,19.50
2023-04-16T09:12:27.553Z,17.27
2023-04-16T09:14:56.342Z,18.73
2023-04-16T09:17:22.955Z,17.70
2023-04-16T09:19:50.984Z,18.05
2023-04-16T09:22:17.601Z,18.58
2023-04-16T09:24:44.211Z,18.40
2023-04-16T09:27:11.805Z,17.38
2023-04-16T09:29:39.696Z,17.50
2023-04-16T09:32:08.523Z,16.38
2023-04-16T09:34:53.565Z,17.15
2023-04-16T09:37:21.559Z,17.27
2023-04-16T09:39:53.983Z,18.05
2023-04-16T09:44:49.727Z,18.80
2023-04-16T09:47:16.297Z,18.27
2023-04-16T09:49:43.041Z,18.65
2023-04-16T09:52:12.975Z,19.50
2023-04-16T09:54:46.114Z,17.70
2023-04-16T09:57:12.748Z,18.15
2023-04-16T09:59:39.383Z,17.77
2023-04-16T10:02:15.315Z,15.65
2023-04-16T10:04:47.803Z,17.08
2023-04-16T10:07:14.915Z,18.00
2023-04-16T10:09:43.341Z,16.95
2023-04-16T10:12:10.755Z,17.15
2023-04-16T10:14:37.273Z,16.73
2023-04-16T10:17:04.555Z,16.38
2023-04-16T10:19:31.999Z,16.13
2023-04-16T10:21:58.995Z,16.15
2023-04-16T10:24:25.873Z,16.67
2023-04-16T10:26:55.137Z,17.58
2023-04-16T10:29:22.507Z,16.88
2023-04-16T10:31:50.841Z,17.33
2023-04-16T10:34:19.662Z,18.08
2023-04-16T10:36:49.081Z,16.88
2023-04-16T10:39:18.927Z,17.48
2023-04-16T10:41:45.603Z,16.30
2023-04-16T10:44:16.291Z,16.67
2023-04-16T10:46:43.953Z,18.30
2023-04-16T10:49:14.369Z,16.10
2023-04-16T10:51:41.790Z,15.18
2023-04-16T10:54:20.860Z,14.90
2023-04-16T10:56:47.569Z,14.45
2023-04-16T10:59:18.707Z,15.50
2023-04-16T11:01:46.938Z,15.13
2023-04-16T11:04:36.018Z,15.43
2023-04-16T11:07:05.299Z,15.50
2023-04-16T11:09:55.114Z,14.82
2023-04-16T11:12:23.423Z,15.65
2023-04-16T11:14:53.127Z,13.88
2023-04-16T11:17:21.049Z,13.68
2023-04-16T11:19:48.328Z,15.07
2023-04-16T11:22:16.980Z,13.18
2023-04-16T11:24:44.673Z,14.18
2023-04-16T11:27:12.788Z,13.98
2023-04-16T11:29:39.683Z,12.40
2023-04-16T11:32:07.678Z,13.68
2023-04-16T11:34:34.292Z,13.43
2023-04-16T11:37:00.912Z,13.43
2023-04-16T11:39:27.621Z,13.00
2023-04-16T11:41:54.288Z,13.48
2023-04-16T11:44:22.078Z,12.10
2023-04-16T11:46:49.080Z,12.90
2023-04-16T11:49:17.229Z,12.77
2023-04-16T11:51:45.427Z,13.13
2023-04-16T11:54:19.382Z,13.48
2023-04-16T11:56:47.177Z,12.63
2023-04-16T11:59:15.105Z,12.82
2023-04-16T12:01:45.305Z,11.45
2023-04-16T12:04:14.016Z,11.82
2023-04-16T12:07:05.553Z,11.90
2023-04-16T12:09:32.727Z,11.23
2023-04-16T12:11:59.314Z,10.98
2023-04-16T12:14:25.857Z,11.15
2023-04-16T12:16:52.534Z,11.65
2023-04-16T12:19:19.284Z,12.30
2023-04-16T12:21:48.846Z,11.38
2023-04-16T12:24:17.607Z,12.35
2023-04-16T12:26:45.673Z,12.13
2023-04-16T12:29:20.194Z,11.85
2023-04-16T12:31:47.462Z,12.10
2023-04-16T12:34:14.478Z,11.48
2023-04-16T12:36:41.533Z,10.95
2023-04-16T12:39:10.058Z,12.80
2023-04-16T12:41:38.058Z,13.00
2023-04-16T12:44:06.432Z,13.40
2023-04-16T12:46:33.092Z,14.25
2023-04-16T12:48:59.745Z,13.98
2023-04-16T12:51:26.588Z,14.65
2023-04-16T12:53:53.824Z,14.60
2023-04-16T12:56:21.800Z,15.23
2023-04-16T12:58:48.461Z,15.70
2023-04-16T13:01:14.991Z,14.35
2023-04-16T13:03:41.847Z,15.20
2023-04-16T13:06:08.585Z,14.48
2023-04-16T13:08:35.218Z,16.17
2023-04-16T13:11:01.893Z,15.73
2023-04-16T13:13:30.021Z,15.75
2023-04-16T13:15:56.592Z,15.63
2023-04-16T13:18:23.439Z,14.68
2023-04-16T13:20:50.103Z,15.05
2023-04-16T13:23:16.708Z,17.02
2023-04-16T13:25:43.251Z,15.00
2023-04-16T13:28:09.936Z,14.43
2023-04-16T13:30:37.920Z,14.52
2023-04-16T13:33:04.600Z,15.15
2023-04-16T13:35:31.242Z,15.60
2023-04-16T13:37:57.923Z,15.90
2023-04-16T13:40:24.558Z,15.73
2023-04-16T13:42:51.503Z,15.43
2023-04-16T13:45:18.115Z,15.20
2023-04-16T13:47:46.123Z,15.38
2023-04-16T13:50:12.737Z,15.80
2023-04-16T13:52:39.374Z,15.32
2023-04-16T13:55:06.685Z,15.18
2023-04-16T13:57:33.302Z,15.00
2023-04-16T13:59:59.844Z,13.85
2023-04-16T14:02:26.602Z,14.75
2023-04-16T14:04:54.870Z,15.07
2023-04-16T14:07:21.391Z,14.25
2023-04-16T14:09:48.013Z,13.82
2023-04-16T14:12:14.653Z,14.73
2023-04-16T14:14:41.304Z,13.80
2023-04-16T14:17:07.882Z,13.25
2023-04-16T14:19:34.487Z,13.43
2023-04-16T14:22:02.699Z,13.43
2023-04-16T14:24:29.354Z,12.73
2023-04-16T14:26:56.061Z,13.05
2023-04-16T14:29:22.670Z,13.05
2023-04-16T14:31:49.389Z,14.07
2023-04-16T14:34:16.047Z,12.65
2023-04-16T14:36:42.802Z,12.57
2023-04-16T14:39:11.108Z,11.60
2023-04-16T14:41:37.788Z,12.63
2023-04-16T14:44:04.442Z,13.75
2023-04-16T14:46:30.958Z,11.90
2023-04-16T14:48:57.501Z,11.45
2023-04-16T14:51:24.046Z,11.88
2023-04-16T14:53:50.684Z,12.82
2023-04-16T14:56:18.706Z,11.95
2023-04-16T14:58:45.324Z,11.77
2023-04-16T15:01:12.000Z,12.20
2023-04-16T15:03:38.678Z,11.77
2023-04-16T15:06:05.914Z,12.68
2023-04-16T15:08:32.703Z,11.18
2023-04-16T15:10:59.219Z,11.82
2023-04-16T15:13:27.373Z,12.38
2023-04-16T15:15:53.997Z,12.38
2023-04-16T15:18:20.586Z,11.50
2023-04-16T15:20:47.129Z,11.95
2023-04-16T15:23:13.644Z,12.20
2023-04-16T15:25:40.381Z,11.95
2023-04-16T15:28:06.955Z,12.52
2023-04-16T15:30:34.921Z,12.23
2023-04-16T15:33:01.707Z,11.52
2023-04-16T15:35:28.383Z,12.00
2023-04-16T15:37:54.975Z,10.95
2023-04-16T15:40:21.562Z,11.10
2023-04-16T15:42:48.291Z,10.32
2023-04-16T15:45:14.819Z,11.25
2023-04-16T15:47:42.796Z,9.68
2023-04-16T15:50:09.732Z,9.88
2023-04-16T15:52:36.526Z,10.07
2023-04-16T15:55:04.379Z,10.50
2023-04-16T15:57:31.153Z,10.45
2023-04-16T16:00:06.614Z,9.95
2023-04-16T16:02:34.247Z,10.38
2023-04-16T16:05:02.487Z,9.77
2023-04-16T16:07:29.051Z,10.23
2023-04-16T16:09:55.720Z,10.40
2023-04-16T16:12:22.295Z,10.27
2023-04-16T16:14:48.831Z,10.77
2023-04-16T16:17:15.559Z,10.02
2023-04-16T16:19:42.539Z,10.90
2023-04-16T16:22:11.383Z,11.13
2023-04-16T16:24:37.958Z,10.40
2023-04-16T16:27:04.794Z,11.70
2023-04-16T16:29:31.307Z,10.85
2023-04-16T16:31:58.083Z,11.88
2023-04-16T16:34:24.961Z,10.80
2023-04-16T16:36:51.887Z,10.80
2023-04-16T16:39:19.836Z,11.25
2023-04-16T16:41:46.532Z,11.38
2023-04-16T16:44:13.096Z,10.63
2023-04-16T16:46:39.666Z,10.43
2023-04-16T16:49:06.229Z,10.00
2023-04-16T16:51:32.858Z,11.93
2023-04-16T16:53:59.484Z,10.75
2023-04-16T16:56:27.440Z,10.95
2023-04-16T16:58:54.088Z,11.07
2023-04-16T17:01:20.665Z,11.15
2023-04-16T17:03:47.380Z,11.68
2023-04-16T17:06:14.072Z,10.80
2023-04-16T17:08:40.683Z,13.35
2023-04-16T17:11:07.300Z,11.95
2023-04-16T17:13:35.266Z,11.85
2023-04-16T17:16:01.869Z,10.00
2023-04-16T17:18:28.444Z,11.48
2023-04-16T17:20:55.120Z,10.95
2023-04-16T17:23:21.636Z,11.10
2023-04-16T17:25:48.223Z,10.30
2023-04-16T17:28:14.796Z,10.60
2023-04-16T17:30:42.797Z,11.85
2023-04-16T17:33:09.394Z,10.45
2023-04-16T17:35:35.995Z,10.65
2023-04-16T17:38:02.639Z,10.48
2023-04-16T17:40:29.227Z,10.98
2023-04-16T17:42:55.819Z,11.45
2023-04-16T17:45:22.421Z,11.00
2023-04-16T17:47:50.443Z,11.65
2023-04-16T17:50:17.182Z,13.20
2023-04-16T17:52:43.808Z,12.05
2023-04-16T17:55:11.389Z,12.10
2023-04-16T17:57:37.919Z,12.10
2023-04-16T18:00:05.919Z,12.10
2023-04-16T18:02:38.412Z,12.63
2023-04-16T18:05:07.945Z,12.48
2023-04-16T18:07:34.910Z,12.20
2023-04-16T18:10:01.553Z,12.85
2023-04-16T18:12:28.181Z,12.20
2023-04-16T18:14:54.819Z,12.73
2023-04-16T18:17:21.420Z,13.43
2023-04-16T18:19:48.037Z,13.82
2023-04-16T18:22:15.904Z,13.90
2023-04-16T18:24:42.435Z,13.32
2023-04-16T18:27:09.080Z,13.30
2023-04-16T18:29:35.669Z,13.27
2023-04-16T18:32:04.428Z,14.48
2023-04-16T18:34:31.609Z,14.10
2023-04-16T18:36:58.158Z,12.93
2023-04-16T18:39:26.095Z,13.88
2023-04-16T18:41:52.650Z,13.98
2023-04-16T18:44:19.253Z,14.07
2023-04-16T18:46:45.895Z,14.20
2023-04-16T18:49:12.846Z,14.32
2023-04-16T18:51:39.489Z,13.95
2023-04-16T18:54:06.070Z,13.80
2023-04-16T18:56:34.027Z,14.05
2023-04-16T18:59:00.631Z,13.55
2023-04-16T19:01:27.375Z,13.93
2023-04-16T19:03:54.106Z,13.85
2023-04-16T19:06:20.674Z,13.85
2023-04-16T19:08:47.224Z,14.32
2023-04-16T19:11:13.892Z,14.93
2023-04-16T19:13:41.801Z,14.10
2023-04-16T19:16:08.392Z,13.48
2023-04-16T19:18:35.007Z,13.57
2023-04-16T19:21:01.703Z,12.50
2023-04-16T19:23:28.724Z,13.90
2023-04-16T19:25:55.416Z,13.80
2023-04-16T19:28:22.021Z,14.60
2023-04-16T19:30:51.517Z,12.70
2023-04-16T19:33:18.160Z,12.07
2023-04-16T19:35:45.174Z,12.98
2023-04-16T19:38:11.959Z,13.23
2023-04-16T19:40:38.558Z,13.60
2023-04-16T19:43:05.091Z,14.55
2023-04-16T19:45:31.639Z,13.52
2023-04-16T19:47:59.620Z,14.35
2023-04-16T19:50:26.299Z,13.98
2023-04-16T19:52:52.853Z,14.18
2023-04-16T19:55:19.438Z,13.60
2023-04-16T19:57:47.578Z,13.75
2023-04-16T20:00:15.017Z,13.10
2023-04-16T20:02:41.733Z,12.85
2023-04-16T20:05:10.028Z,13.30
2023-04-16T20:07:40.536Z,13.70
2023-04-16T20:10:07.901Z,15.23
2023-04-16T20:12:34.546Z,12.30
2023-04-16T20:15:01.091Z,14.82
2023-04-16T20:17:27.705Z,13.68
2023-04-16T20:19:54.500Z,14.07
2023-04-16T20:22:22.458Z,14.65
2023-04-16T20:24:49.017Z,14.80
2023-04-16T20:27:15.574Z,14.68
2023-04-16T20:29:42.441Z,14.80
2023-04-16T20:32:09.009Z,15.60
2023-04-16T20:34:35.600Z,16.02
2023-04-16T20:37:02.234Z,15.80
2023-04-16T20:39:30.191Z,15.50
2023-04-16T20:41:56.776Z,15.40
2023-04-16T20:44:23.799Z,15.48
2023-04-16T20:46:50.536Z,15.60
2023-04-16T20:49:17.353Z,15.32
2023-04-16T20:51:43.886Z,16.30
2023-04-16T20:54:10.428Z,16.92
2023-04-16T20:56:38.352Z,15.48
2023-04-16T20:59:04.930Z,17.92
2023-04-16T21:01:31.496Z,17.25
2023-04-16T21:03:58.306Z,17.27
2023-04-16T21:06:25.266Z,17.27
2023-04-16T21:08:51.823Z,16.60
2023-04-16T21:11:18.433Z,17.10
2023-04-16T21:13:46.385Z,17.15
2023-04-16T21:16:12.993Z,17.83
2023-04-16T21:18:39.601Z,17.63
2023-04-16T21:21:06.213Z,17.33
2023-04-16T21:23:32.904Z,17.27
2023-04-16T21:25:59.450Z,17.20
2023-04-16T21:28:26.077Z,17.90
2023-04-16T21:30:54.007Z,18.30
2023-04-16T21:33:20.660Z,17.60
2023-04-16T21:35:50.977Z,18.52
2023-04-16T21:38:17.517Z,18.08
2023-04-16T21:40:45.182Z,16.73
2023-04-16T21:43:11.763Z,19.13
2023-04-16T21:45:38.275Z,19.77
2023-04-16T21:48:06.807Z,18.45
2023-04-16T21:50:33.413Z,19.60
2023-04-16T21:53:00.051Z,18.42
2023-04-16T21:55:26.611Z,18.80
2023-04-16T21:57:53.298Z,18.75
2023-04-16T22:00:20.142Z,18.15
2023-04-16T22:02:46.877Z,18.55
2023-04-16T22:05:15.066Z,19.17
2023-04-16T22:07:41.635Z,19.00
2023-04-16T22:10:09.140Z,20.30
2023-04-16T22:12:35.782Z,20.23
2023-04-16T22:15:03.357Z,21.10
2023-04-16T22:17:30.098Z,20.45
2023-04-16T22:19:56.941Z,21.02
2023-04-16T22:22:24.941Z,18.83
2023-04-16T22:24:51.745Z,19.45
2023-04-16T22:27:18.295Z,20.33
2023-04-16T22:29:44.984Z,20.15
2023-04-16T22:32:11.643Z,19.48
2023-04-16T22:34:38.236Z,20.60
2023-04-16T22:37:04.911Z,21.30
2023-04-16T22:39:32.802Z,21.27
2023-04-16T22:41:59.356Z,21.65
2023-04-16T22:44:26.087Z,21.85
2023-04-16T22:46:52.612Z,21.05
2023-04-16T22:49:19.189Z,21.77
2023-04-16T22:51:45.999Z,21.15
2023-04-16T22:54:13.989Z,21.27
2023-04-16T22:56:41.980Z,19.70
2023-04-16T22:59:08.598Z,22.23
2023-04-16T23:01:35.381Z,22.42
2023-04-16T23:04:02.050Z,21.27
2023-04-16T23:06:28.755Z,21.40
2023-04-16T23:08:55.320Z,21.02
2023-04-16T23:11:22.183Z,20.85
2023-04-16T23:13:50.084Z,21.52
2023-04-16T23:16:16.720Z,21.02
2023-04-16T23:18:43.412Z,21.75
2023-04-16T23:21:09.937Z,22.45
2023-04-16T23:23:36.491Z,21.70
2023-04-16T23:26:03.335Z,21.77
2023-04-16T23:28:29.932Z,22.42
2023-04-16T23:30:57.940Z,22.90
2023-04-16T23:33:24.607Z,23.42
2023-04-16T23:35:51.159Z,22.13
2023-04-16T23:38:17.732Z,22.48
2023-04-16T23:40:44.337Z,22.15
2023-04-16T23:43:10.881Z,22.48
2023-04-16T23:45:37.421Z,22.42
2023-04-16T23:48:05.915Z,23.17
2023-04-16T23:50:32.473Z,22.95
2023-04-16T23:52:59.085Z,23.40
2023-04-16T23:55:25.654Z,21.83
2023-04-16T23:57:52.255Z,22.05
